sensor_id;sensor_type;location;lat;lon;timestamp;pressure;altitude;pressure_sealevel;temperature;humidity
26775;BME280;14362;51.902;7.626;2023-06-05T00:02:14;101584.78;;;14.87;100.00
26775;BME280;14362;51.902;7.626;2023-06-05T00:06:17;101577.19;;;14.96;100.00
26775;BME280;14362;51.902;7.626;2023-06-05T00:10:19;101582.81;;;14.79;100.00
26775;BME280;14362;51.902;7.626;2023-06-05T00:14:20;101584.31;;;14.60;100.00
26775;BME280;14362;51.902;7.626;2023-06-05T00:18:21;101583.50;;;14.59;100.00
26775;BME280;14362;51.902;7.626;2023-06-05T00:22:25;101577.53;;;14.44;100.00
26775;BME280;14362;51.902;7.626;2023-06-05T00:26:27;101581.00;;;14.49;100.00
26775;BME280;14362;51.902;7.626;2023-06-05T00:30:28;101588.28;;;14.42;100.00
26775;BME280;14362;51.902;7.626;2023-06-05T00:34:30;101577.19;;;14.29;100.00
26775;BME280;14362;51.902;7.626;2023-06-05T00:38:32;101576.53;;;14.32;100.00
26775;BME280;14362;51.902;7.626;2023-06-05T00:42:34;101580.66;;;14.26;100.00
26775;BME280;14362;51.902;7.626;2023-06-05T00:46:36;101579.19;;;14.20;100.00
26775;BME280;14362;51.902;7.626;2023-06-05T00:50:37;101582.75;;;14.12;100.00
26775;BME280;14362;51.902;7.626;2023-06-05T00:54:41;101577.84;;;14.17;100.00
26775;BME280;14362;51.902;7.626;2023-06-05T00:58:43;101566.41;;;14.05;100.00
26775;BME280;14362;51.902;7.626;2023-06-05T01:02:44;101573.53;;;14.11;100.00
26775;BME280;14362;51.902;7.626;2023-06-05T01:06:46;101575.34;;;14.07;100.00
26775;BME280;14362;51.902;7.626;2023-06-05T01:10:49;101567.41;;;13.92;100.00
26775;BME280;14362;51.902;7.626;2023-06-05T01:14:51;101570.59;;;13.69;100.00
26775;BME280;14362;51.902;7.626;2023-06-05T01:18:59;101575.25;;;13.73;100.00
26775;BME280;14362;51.902;7.626;2023-06-05T01:23:04;101571.63;;;13.73;100.00
26775;BME280;14362;51.902;7.626;2023-06-05T01:27:08;101573.78;;;13.76;100.00
26775;BME280;14362;51.902;7.626;2023-06-05T01:31:12;101570.44;;;13.65;100.00
26775;BME280;14362;51.902;7.626;2023-06-05T01:35:17;101565.34;;;13.67;100.00
26775;BME280;14362;51.902;7.626;2023-06-05T01:39:21;101572.53;;;13.51;100.00
26775;BME280;14362;51.902;7.626;2023-06-05T01:43:24;101571.41;;;13.52;100.00
26775;BME280;14362;51.902;7.626;2023-06-05T01:47:26;101568.88;;;13.42;100.00
26775;BME280;14362;51.902;7.626;2023-06-05T01:51:28;101557.84;;;13.37;100.00
26775;BME280;14362;51.902;7.626;2023-06-05T01:55:31;101565.84;;;13.30;100.00
26775;BME280;14362;51.902;7.626;2023-06-05T01:59:32;101562.19;;;13.22;100.00
26775;BME280;14362;51.902;7.626;2023-06-05T02:03:34;101558.22;;;13.23;100.00
26775;BME280;14362;51.902;7.626;2023-06-05T02:07:37;101557.38;;;13.14;100.00
26775;BME280;14362;51.902;7.626;2023-06-05T02:11:42;101563.41;;;12.99;100.00
26775;BME280;14362;51.902;7.626;2023-06-05T02:15:45;101561.09;;;13.01;100.00
26775;BME280;14362;51.902;7.626;2023-06-05T02:19:47;101547.25;;;12.96;100.00
26775;BME280;14362;51.902;7.626;2023-06-05T02:23:48;101555.22;;;12.89;100.00
26775;BME280;14362;51.902;7.626;2023-06-05T02:27:52;101553.06;;;12.86;100.00
26775;BME280;14362;51.902;7.626;2023-06-05T02:31:54;101552.69;;;12.79;100.00
26775;BME280;14362;51.902;7.626;2023-06-05T02:35:55;101550.31;;;12.64;100.00
26775;BME280;14362;51.902;7.626;2023-06-05T02:39:57;101553.97;;;12.73;100.00
26775;BME280;14362;51.902;7.626;2023-06-05T02:44:00;101546.53;;;12.68;100.00
26775;BME280;14362;51.902;7.626;2023-06-05T02:48:01;101550.78;;;12.66;100.00
26775;BME280;14362;51.902;7.626;2023-06-05T02:52:03;101551.13;;;12.64;100.00
26775;BME280;14362;51.902;7.626;2023-06-05T02:56:05;101549.59;;;12.58;100.00
26775;BME280;14362;51.902;7.626;2023-06-05T03:00:09;101558.31;;;12.57;100.00
26775;BME280;14362;51.902;7.626;2023-06-05T03:04:14;101552.38;;;12.36;100.00
26775;BME280;14362;51.902;7.626;2023-06-05T03:08:21;101548.72;;;12.49;100.00
26775;BME280;14362;51.902;7.626;2023-06-05T03:12:22;101547.63;;;12.37;100.00
26775;BME280;14362;51.902;7.626;2023-06-05T03:16:25;101543.50;;;12.34;100.00
26775;BME280;14362;51.902;7.626;2023-06-05T03:20:32;101542.13;;;12.32;100.00
26775;BME280;14362;51.902;7.626;2023-06-05T03:24:34;101545.72;;;12.24;100.00
26775;BME280;14362;51.902;7.626;2023-06-05T03:28:38;101542.25;;;12.27;100.00
26775;BME280;14362;51.902;7.626;2023-06-05T03:32:40;101543.03;;;12.19;100.00
26775;BME280;14362;51.902;7.626;2023-06-05T03:36:42;101540.41;;;12.23;100.00
26775;BME280;14362;51.902;7.626;2023-06-05T03:40:43;101534.19;;;12.25;100.00
26775;BME280;14362;51.902;7.626;2023-06-05T03:44:45;101544.19;;;12.05;100.00
26775;BME280;14362;51.902;7.626;2023-06-05T03:48:48;101540.75;;;12.21;100.00
26775;BME280;14362;51.902;7.626;2023-06-05T03:52:53;101552.53;;;12.18;100.00
26775;BME280;14362;51.902;7.626;2023-06-05T03:56:54;101542.63;;;12.12;100.00
26775;BME280;14362;51.902;7.626;2023-06-05T04:00:58;101544.53;;;12.03;100.00
26775;BME280;14362;51.902;7.626;2023-06-05T04:05:00;101548.66;;;12.06;100.00
26775;BME280;14362;51.902;7.626;2023-06-05T04:09:03;101549.97;;;12.08;100.00
26775;BME280;14362;51.902;7.626;2023-06-05T04:13:10;101541.28;;;12.10;100.00
26775;BME280;14362;51.902;7.626;2023-06-05T04:17:12;101544.50;;;12.17;100.00
26775;BME280;14362;51.902;7.626;2023-06-05T04:21:15;101547.59;;;12.15;100.00
26775;BME280;14362;51.902;7.626;2023-06-05T04:25:17;101552.16;;;12.11;100.00
26775;BME280;14362;51.902;7.626;2023-06-05T04:29:18;101542.75;;;12.07;100.00
26775;BME280;14362;51.902;7.626;2023-06-05T04:33:20;101542.31;;;12.14;100.00
26775;BME280;14362;51.902;7.626;2023-06-05T04:37:22;101544.88;;;12.23;100.00
26775;BME280;14362;51.902;7.626;2023-06-05T04:41:24;101543.84;;;12.20;100.00
26775;BME280;14362;51.902;7.626;2023-06-05T04:45:25;101538.97;;;12.25;100.00
26775;BME280;14362;51.902;7.626;2023-06-05T04:49:27;101538.19;;;12.33;100.00
26775;BME280;14362;51.902;7.626;2023-06-05T04:53:30;101529.75;;;12.46;100.00
26775;BME280;14362;51.902;7.626;2023-06-05T04:57:32;101535.94;;;12.57;100.00
26775;BME280;14362;51.902;7.626;2023-06-05T05:01:33;101531.66;;;12.59;100.00
26775;BME280;14362;51.902;7.626;2023-06-05T05:05:35;101538.84;;;12.74;100.00
26775;BME280;14362;51.902;7.626;2023-06-05T05:09:38;101549.75;;;12.84;100.00
26775;BME280;14362;51.902;7.626;2023-06-05T05:13:39;101537.03;;;12.91;100.00
26775;BME280;14362;51.902;7.626;2023-06-05T05:17:40;101541.63;;;12.96;100.00
26775;BME280;14362;51.902;7.626;2023-06-05T05:21:42;101538.09;;;13.12;100.00
26775;BME280;14362;51.902;7.626;2023-06-05T05:25:46;101549.06;;;13.30;100.00
26775;BME280;14362;51.902;7.626;2023-06-05T05:29:47;101547.03;;;13.70;100.00
26775;BME280;14362;51.902;7.626;2023-06-05T05:33:49;101547.00;;;14.26;100.00
26775;BME280;14362;51.902;7.626;2023-06-05T05:37:50;101535.78;;;14.59;100.00
26775;BME280;14362;51.902;7.626;2023-06-05T05:41:53;101537.72;;;14.84;100.00
26775;BME280;14362;51.902;7.626;2023-06-05T05:45:54;101543.94;;;15.15;100.00
26775;BME280;14362;51.902;7.626;2023-06-05T05:49:56;101550.59;;;15.48;100.00
26775;BME280;14362;51.902;7.626;2023-06-05T05:53:57;101556.56;;;15.75;100.00
26775;BME280;14362;51.902;7.626;2023-06-05T05:58:00;101558.13;;;15.93;100.00
26775;BME280;14362;51.902;7.626;2023-06-05T06:02:01;101550.47;;;16.23;100.00
26775;BME280;14362;51.902;7.626;2023-06-05T06:06:08;101554.66;;;16.17;100.00
26775;BME280;14362;51.902;7.626;2023-06-05T06:10:11;101548.97;;;16.05;100.00
26775;BME280;14362;51.902;7.626;2023-06-05T06:14:15;101555.59;;;16.00;100.00
26775;BME280;14362;51.902;7.626;2023-06-05T06:18:16;101557.75;;;16.03;100.00
26775;BME280;14362;51.902;7.626;2023-06-05T06:22:19;101561.41;;;15.66;100.00
26775;BME280;14362;51.902;7.626;2023-06-05T06:26:20;101569.47;;;15.76;100.00
26775;BME280;14362;51.902;7.626;2023-06-05T06:30:23;101558.13;;;15.64;100.00
26775;BME280;14362;51.902;7.626;2023-06-05T06:34:24;101565.63;;;15.81;100.00
26775;BME280;14362;51.902;7.626;2023-06-05T06:38:26;101563.44;;;15.86;100.00
26775;BME280;14362;51.902;7.626;2023-06-05T06:42:30;101566.94;;;16.12;100.00
26775;BME280;14362;51.902;7.626;2023-06-05T06:46:33;101566.63;;;16.05;100.00
26775;BME280;14362;51.902;7.626;2023-06-05T06:50:34;101570.59;;;15.84;100.00
26775;BME280;14362;51.902;7.626;2023-06-05T06:54:36;101571.03;;;16.15;100.00
26775;BME280;14362;51.902;7.626;2023-06-05T06:58:38;101566.78;;;16.38;100.00
26775;BME280;14362;51.902;7.626;2023-06-05T07:02:41;101570.09;;;16.60;100.00
26775;BME280;14362;51.902;7.626;2023-06-05T07:06:43;101570.31;;;16.67;100.00
26775;BME280;14362;51.902;7.626;2023-06-05T07:10:45;101573.66;;;16.81;100.00
26775;BME280;14362;51.902;7.626;2023-06-05T07:14:47;101565.84;;;16.86;100.00
26775;BME280;14362;51.902;7.626;2023-06-05T07:18:49;101573.13;;;16.87;100.00
26775;BME280;14362;51.902;7.626;2023-06-05T07:22:54;101566.53;;;17.16;100.00
26775;BME280;14362;51.902;7.626;2023-06-05T07:26:57;101568.53;;;17.27;100.00
26775;BME280;14362;51.902;7.626;2023-06-05T07:30:59;101565.44;;;17.41;100.00
26775;BME280;14362;51.902;7.626;2023-06-05T07:35:06;101569.00;;;17.17;100.00
26775;BME280;14362;51.902;7.626;2023-06-05T07:39:07;101565.38;;;17.29;100.00
26775;BME280;14362;51.902;7.626;2023-06-05T07:43:10;101561.69;;;17.48;100.00
26775;BME280;14362;51.902;7.626;2023-06-05T07:47:14;101558.75;;;17.45;100.00
26775;BME280;14362;51.902;7.626;2023-06-05T07:51:17;101551.59;;;17.59;100.00
26775;BME280;14362;51.902;7.626;2023-06-05T07:55:19;101561.22;;;17.58;100.00
26775;BME280;14362;51.902;7.626;2023-06-05T07:59:20;101555.47;;;17.43;100.00
26775;BME280;14362;51.902;7.626;2023-06-05T08:03:25;101558.28;;;17.67;100.00
26775;BME280;14362;51.902;7.626;2023-06-05T08:07:27;101563.44;;;18.13;100.00
26775;BME280;14362;51.902;7.626;2023-06-05T08:11:29;101567.22;;;18.17;100.00
26775;BME280;14362;51.902;7.626;2023-06-05T08:15:30;101558.88;;;18.08;100.00
26775;BME280;14362;51.902;7.626;2023-06-05T08:19:32;101553.44;;;18.15;100.00
26775;BME280;14362;51.902;7.626;2023-06-05T08:23:36;101553.19;;;18.20;100.00
26775;BME280;14362;51.902;7.626;2023-06-05T08:27:37;101548.63;;;18.40;100.00
26775;BME280;14362;51.902;7.626;2023-06-05T08:31:39;101552.19;;;18.52;100.00
26775;BME280;14362;51.902;7.626;2023-06-05T08:35:41;101538.41;;;18.62;98.21
26775;BME280;14362;51.902;7.626;2023-06-05T08:39:44;101547.25;;;18.61;96.89
26775;BME280;14362;51.902;7.626;2023-06-05T08:43:47;101541.09;;;18.32;99.23
26775;BME280;14362;51.902;7.626;2023-06-05T08:47:50;101542.25;;;18.70;100.00
26775;BME280;14362;51.902;7.626;2023-06-05T08:51:52;101536.25;;;18.99;92.15
26775;BME280;14362;51.902;7.626;2023-06-05T08:55:56;101534.97;;;18.96;94.65
26775;BME280;14362;51.902;7.626;2023-06-05T08:59:59;101522.03;;;19.11;96.05
26775;BME280;14362;51.902;7.626;2023-06-05T09:04:01;101527.09;;;19.17;90.37
26775;BME280;14362;51.902;7.626;2023-06-05T09:08:03;101527.75;;;19.26;89.58
26775;BME280;14362;51.902;7.626;2023-06-05T09:12:07;101524.94;;;19.42;83.92
26775;BME280;14362;51.902;7.626;2023-06-05T09:16:09;101522.00;;;19.54;86.43
26775;BME280;14362;51.902;7.626;2023-06-05T09:20:22;101529.38;;;19.73;79.95
26775;BME280;14362;51.902;7.626;2023-06-05T09:24:24;101527.75;;;19.72;77.70
26775;BME280;14362;51.902;7.626;2023-06-05T09:28:29;101524.59;;;19.93;77.39
26775;BME280;14362;51.902;7.626;2023-06-05T09:32:30;101514.00;;;20.05;73.58
26775;BME280;14362;51.902;7.626;2023-06-05T09:36:32;101522.50;;;20.05;81.05
26775;BME280;14362;51.902;7.626;2023-06-05T09:40:38;101510.44;;;20.08;78.01
26775;BME280;14362;51.902;7.626;2023-06-05T09:44:57;101511.91;;;20.37;76.20
26775;BME280;14362;51.902;7.626;2023-06-05T09:48:59;101509.53;;;20.39;70.12
26775;BME280;14362;51.902;7.626;2023-06-05T09:53:01;101509.13;;;20.21;70.55
26775;BME280;14362;51.902;7.626;2023-06-05T09:57:05;101503.41;;;20.37;71.53
26775;BME280;14362;51.902;7.626;2023-06-05T10:01:08;101501.31;;;20.53;71.58
26775;BME280;14362;51.902;7.626;2023-06-05T10:05:11;101500.44;;;20.49;76.63
26775;BME280;14362;51.902;7.626;2023-06-05T10:09:14;101487.31;;;20.60;78.58
26775;BME280;14362;51.902;7.626;2023-06-05T10:13:15;101484.47;;;20.78;73.48
26775;BME280;14362;51.902;7.626;2023-06-05T10:17:18;101482.69;;;20.89;72.16
26775;BME280;14362;51.902;7.626;2023-06-05T10:21:20;101477.38;;;21.07;68.63
26775;BME280;14362;51.902;7.626;2023-06-05T10:25:23;101478.00;;;21.19;68.29
26775;BME280;14362;51.902;7.626;2023-06-05T10:29:42;101470.88;;;21.29;67.41
26775;BME280;14362;51.902;7.626;2023-06-05T10:33:55;101471.44;;;21.38;66.37
26775;BME280;14362;51.902;7.626;2023-06-05T10:38:07;101467.09;;;21.44;62.56
26775;BME280;14362;51.902;7.626;2023-06-05T10:42:23;101460.91;;;21.61;65.56
26775;BME280;14362;51.902;7.626;2023-06-05T10:46:30;101452.06;;;21.91;62.00
26775;BME280;14362;51.902;7.626;2023-06-05T10:50:33;101456.94;;;21.91;61.38
26775;BME280;14362;51.902;7.626;2023-06-05T10:54:54;101450.50;;;22.23;60.61
26775;BME280;14362;51.902;7.626;2023-06-05T10:59:20;101445.19;;;22.22;56.00
26775;BME280;14362;51.902;7.626;2023-06-05T11:03:54;101450.06;;;22.21;54.26
26775;BME280;14362;51.902;7.626;2023-06-05T11:08:14;101448.28;;;22.36;45.59
26775;BME280;14362;51.902;7.626;2023-06-05T11:12:16;101443.19;;;22.22;49.81
26775;BME280;14362;51.902;7.626;2023-06-05T11:16:31;101429.50;;;22.31;52.18
26775;BME280;14362;51.902;7.626;2023-06-05T11:20:51;101433.59;;;22.63;nan
26775;BME280;14362;51.902;7.626;2023-06-05T11:25:25;101431.22;;;22.69;43.36
26775;BME280;14362;51.902;7.626;2023-06-05T11:29:27;101433.28;;;22.72;42.72
26775;BME280;14362;51.902;7.626;2023-06-05T11:33:29;101425.56;;;22.72;46.94
26775;BME280;14362;51.902;7.626;2023-06-05T11:37:31;101441.31;;;23.02;45.29
26775;BME280;14362;51.902;7.626;2023-06-05T11:45:49;101419.25;;;22.89;42.01
26775;BME280;14362;51.902;7.626;2023-06-05T11:49:51;101425.94;;;23.07;43.19
26775;BME280;14362;51.902;7.626;2023-06-05T11:53:52;101418.97;;;23.01;43.57
26775;BME280;14362;51.902;7.626;2023-06-05T11:57:55;101414.19;;;23.08;43.61
26775;BME280;14362;51.902;7.626;2023-06-05T12:01:56;101423.66;;;23.23;42.92
26775;BME280;14362;51.902;7.626;2023-06-05T12:06:00;101407.09;;;23.32;42.38
26775;BME280;14362;51.902;7.626;2023-06-05T12:10:03;101408.69;;;23.29;40.91
26775;BME280;14362;51.902;7.626;2023-06-05T12:14:06;101412.53;;;23.54;41.18
26775;BME280;14362;51.902;7.626;2023-06-05T12:18:08;101402.28;;;23.43;40.49
26775;BME280;14362;51.902;7.626;2023-06-05T12:22:09;101408.03;;;23.46;41.31
26775;BME280;14362;51.902;7.626;2023-06-05T12:26:11;101394.91;;;23.35;42.26
26775;BME280;14362;51.902;7.626;2023-06-05T12:30:14;101400.44;;;23.68;41.33
26775;BME280;14362;51.902;7.626;2023-06-05T12:34:16;101402.44;;;23.64;41.30
26775;BME280;14362;51.902;7.626;2023-06-05T12:38:18;101403.31;;;23.71;40.89
26775;BME280;14362;51.902;7.626;2023-06-05T12:42:19;101389.41;;;23.63;41.25
26775;BME280;14362;51.902;7.626;2023-06-05T12:46:22;101389.91;;;23.72;40.83
26775;BME280;14362;51.902;7.626;2023-06-05T12:50:24;101379.03;;;23.87;40.79
26775;BME280;14362;51.902;7.626;2023-06-05T12:54:26;101377.47;;;23.93;41.09
26775;BME280;14362;51.902;7.626;2023-06-05T12:58:28;101374.66;;;24.04;41.20
26775;BME280;14362;51.902;7.626;2023-06-05T13:02:31;101370.59;;;24.08;40.11
26775;BME280;14362;51.902;7.626;2023-06-05T13:06:36;101359.22;;;24.08;39.46
26775;BME280;14362;51.902;7.626;2023-06-05T13:10:37;101365.75;;;24.16;38.68
26775;BME280;14362;51.902;7.626;2023-06-05T13:14:39;101367.03;;;24.29;38.19
26775;BME280;14362;51.902;7.626;2023-06-05T13:18:42;101355.56;;;24.15;37.84
26775;BME280;14362;51.902;7.626;2023-06-05T13:22:43;101354.81;;;24.35;36.63
26775;BME280;14362;51.902;7.626;2023-06-05T13:26:45;101340.53;;;24.21;38.04
26775;BME280;14362;51.902;7.626;2023-06-05T13:30:47;101336.47;;;24.19;37.08
26775;BME280;14362;51.902;7.626;2023-06-05T13:34:49;101327.09;;;24.15;38.21
26775;BME280;14362;51.902;7.626;2023-06-05T13:38:51;101325.59;;;24.56;36.84
26775;BME280;14362;51.902;7.626;2023-06-05T13:42:53;101319.50;;;24.57;36.95
26775;BME280;14362;51.902;7.626;2023-06-05T13:46:54;101318.28;;;24.65;37.35
26775;BME280;14362;51.902;7.626;2023-06-05T13:50:57;101324.41;;;24.67;36.48
26775;BME280;14362;51.902;7.626;2023-06-05T13:54:59;101317.09;;;24.63;36.03
26775;BME280;14362;51.902;7.626;2023-06-05T13:59:00;101306.88;;;24.65;37.59
26775;BME280;14362;51.902;7.626;2023-06-05T14:03:02;101315.47;;;24.89;37.13
26775;BME280;14362;51.902;7.626;2023-06-05T14:07:05;101303.66;;;24.91;36.59
26775;BME280;14362;51.902;7.626;2023-06-05T14:11:07;101300.38;;;25.06;36.58
26775;BME280;14362;51.902;7.626;2023-06-05T14:15:09;101297.97;;;25.15;35.51
26775;BME280;14362;51.902;7.626;2023-06-05T14:19:10;101291.03;;;25.13;37.93
26775;BME280;14362;51.902;7.626;2023-06-05T14:23:13;101291.81;;;25.34;35.09
26775;BME280;14362;51.902;7.626;2023-06-05T14:27:15;101287.72;;;25.39;35.41
26775;BME280;14362;51.902;7.626;2023-06-05T14:31:18;101296.72;;;25.23;34.74
26775;BME280;14362;51.902;7.626;2023-06-05T14:35:20;101295.50;;;25.31;34.90
26775;BME280;14362;51.902;7.626;2023-06-05T14:39:23;101281.63;;;25.30;35.31
26775;BME280;14362;51.902;7.626;2023-06-05T14:43:25;101271.44;;;25.25;35.43
26775;BME280;14362;51.902;7.626;2023-06-05T14:47:26;101278.34;;;25.42;34.72
26775;BME280;14362;51.902;7.626;2023-06-05T14:51:28;101289.78;;;25.31;35.14
26775;BME280;14362;51.902;7.626;2023-06-05T14:55:31;101278.38;;;25.31;34.56
26775;BME280;14362;51.902;7.626;2023-06-05T14:59:32;101282.41;;;25.48;34.19
26775;BME280;14362;51.902;7.626;2023-06-05T15:03:34;101271.44;;;25.32;34.63
26775;BME280;14362;51.902;7.626;2023-06-05T15:07:36;101272.22;;;25.43;35.11
26775;BME280;14362;51.902;7.626;2023-06-05T15:11:39;101266.50;;;25.47;35.10
26775;BME280;14362;51.902;7.626;2023-06-05T15:15:40;101260.00;;;25.43;35.41
26775;BME280;14362;51.902;7.626;2023-06-05T15:19:42;101265.25;;;25.55;34.89
26775;BME280;14362;51.902;7.626;2023-06-05T15:23:45;101257.13;;;25.46;35.13
26775;BME280;14362;51.902;7.626;2023-06-05T15:27:48;101259.59;;;25.34;35.14
26775;BME280;14362;51.902;7.626;2023-06-05T15:31:49;101253.91;;;25.37;35.38
26775;BME280;14362;51.902;7.626;2023-06-05T15:35:50;101257.13;;;25.39;35.84
26775;BME280;14362;51.902;7.626;2023-06-05T15:39:52;101261.63;;;25.40;34.30
26775;BME280;14362;51.902;7.626;2023-06-05T15:43:55;101259.97;;;25.39;35.02
26775;BME280;14362;51.902;7.626;2023-06-05T15:47:57;101255.53;;;25.03;35.28
26775;BME280;14362;51.902;7.626;2023-06-05T15:51:58;101243.72;;;25.12;36.09
26775;BME280;14362;51.902;7.626;2023-06-05T15:55:59;101253.53;;;25.04;35.78
26775;BME280;14362;51.902;7.626;2023-06-05T16:00:04;101246.56;;;25.01;36.28
26775;BME280;14362;51.902;7.626;2023-06-05T16:04:05;101241.69;;;25.02;35.95
26775;BME280;14362;51.902;7.626;2023-06-05T16:08:07;101235.16;;;25.01;36.50
26775;BME280;14362;51.902;7.626;2023-06-05T16:12:08;101229.88;;;25.00;35.21
26775;BME280;14362;51.902;7.626;2023-06-05T16:16:11;101231.50;;;25.11;35.52
26775;BME280;14362;51.902;7.626;2023-06-05T16:20:13;101232.31;;;24.98;35.60
26775;BME280;14362;51.902;7.626;2023-06-05T16:24:14;101223.75;;;24.98;35.16
26775;BME280;14362;51.902;7.626;2023-06-05T16:28:16;101222.56;;;24.95;36.29
26775;BME280;14362;51.902;7.626;2023-06-05T16:32:19;101224.97;;;25.11;35.88
26775;BME280;14362;51.902;7.626;2023-06-05T16:36:20;101224.59;;;25.09;35.43
26775;BME280;14362;51.902;7.626;2023-06-05T16:40:22;101220.94;;;24.81;35.46
26775;BME280;14362;51.902;7.626;2023-06-05T16:44:23;101219.69;;;25.06;35.35
26775;BME280;14362;51.902;7.626;2023-06-05T16:48:26;101218.09;;;24.74;36.27
26775;BME280;14362;51.902;7.626;2023-06-05T16:52:28;101218.47;;;24.83;35.87
26775;BME280;14362;51.902;7.626;2023-06-05T16:56:29;101205.03;;;24.76;35.37
26775;BME280;14362;51.902;7.626;2023-06-05T17:00:31;101208.69;;;24.97;35.44
26775;BME280;14362;51.902;7.626;2023-06-05T17:04:36;101204.22;;;24.79;36.42
26775;BME280;14362;51.902;7.626;2023-06-05T17:08:38;101216.03;;;24.85;36.59
26775;BME280;14362;51.902;7.626;2023-06-05T17:12:39;101207.91;;;24.73;35.90
26775;BME280;14362;51.902;7.626;2023-06-05T17:16:44;101209.94;;;24.79;36.58
26775;BME280;14362;51.902;7.626;2023-06-05T17:20:47;101214.03;;;24.82;36.47
26775;BME280;14362;51.902;7.626;2023-06-05T17:24:48;101204.19;;;25.03;34.91
26775;BME280;14362;51.902;7.626;2023-06-05T17:28:49;101214.41;;;24.80;36.47
26775;BME280;14362;51.902;7.626;2023-06-05T17:32:57;101207.50;;;24.74;36.44
26775;BME280;14362;51.902;7.626;2023-06-05T17:37:00;101213.19;;;24.71;36.95
26775;BME280;14362;51.902;7.626;2023-06-05T17:41:02;101216.03;;;24.74;36.73
26775;BME280;14362;51.902;7.626;2023-06-05T17:45:04;101207.91;;;24.66;36.59
26775;BME280;14362;51.902;7.626;2023-06-05T17:49:06;101204.63;;;24.64;35.36
26775;BME280;14362;51.902;7.626;2023-06-05T17:53:08;101203.84;;;24.63;35.94
26775;BME280;14362;51.902;7.626;2023-06-05T17:57:11;101212.00;;;24.68;36.92
26775;BME280;14362;51.902;7.626;2023-06-05T18:01:12;101200.16;;;24.59;35.89
26775;BME280;14362;51.902;7.626;2023-06-05T18:05:14;101203.84;;;24.49;36.58
26775;BME280;14362;51.902;7.626;2023-06-05T18:09:17;101203.03;;;24.56;36.45
26775;BME280;14362;51.902;7.626;2023-06-05T18:13:18;101204.63;;;24.36;37.10
26775;BME280;14362;51.902;7.626;2023-06-05T18:17:20;101203.38;;;24.40;37.31
26775;BME280;14362;51.902;7.626;2023-06-05T18:21:21;101213.13;;;24.11;36.52
26775;BME280;14362;51.902;7.626;2023-06-05T18:25:24;101210.66;;;23.99;36.92
26775;BME280;14362;51.902;7.626;2023-06-05T18:29:25;101207.38;;;23.87;37.74
26775;BME280;14362;51.902;7.626;2023-06-05T18:33:27;101215.03;;;23.76;37.74
26775;BME280;14362;51.902;7.626;2023-06-05T18:37:29;101207.25;;;23.63;38.04
26775;BME280;14362;51.902;7.626;2023-06-05T18:41:31;101212.09;;;23.52;38.55
26775;BME280;14362;51.902;7.626;2023-06-05T18:45:33;101225.84;;;23.43;38.37
26775;BME280;14362;51.902;7.626;2023-06-05T18:49:35;101228.69;;;23.36;38.45
26775;BME280;14362;51.902;7.626;2023-06-05T18:53:36;101225.75;;;23.22;39.19
26775;BME280;14362;51.902;7.626;2023-06-05T18:57:42;101213.16;;;23.23;38.96
26775;BME280;14362;51.902;7.626;2023-06-05T19:01:44;101230.09;;;23.05;39.58
26775;BME280;14362;51.902;7.626;2023-06-05T19:05:45;101230.41;;;22.93;40.09
26775;BME280;14362;51.902;7.626;2023-06-05T19:09:46;101233.16;;;22.79;40.68
26775;BME280;14362;51.902;7.626;2023-06-05T19:13:49;101232.63;;;22.67;41.35
26775;BME280;14362;51.902;7.626;2023-06-05T19:17:51;101237.00;;;22.54;42.06
26775;BME280;14362;51.902;7.626;2023-06-05T19:21:52;101235.28;;;22.43;42.84
26775;BME280;14362;51.902;7.626;2023-06-05T19:25:54;101237.94;;;22.29;42.91
26775;BME280;14362;51.902;7.626;2023-06-05T19:29:57;101234.56;;;22.16;43.47
26775;BME280;14362;51.902;7.626;2023-06-05T19:34:00;101235.22;;;22.03;43.83
26775;BME280;14362;51.902;7.626;2023-06-05T19:38:01;101240.00;;;21.95;43.87
26775;BME280;14362;51.902;7.626;2023-06-05T19:42:05;101232.22;;;21.85;43.84
26775;BME280;14362;51.902;7.626;2023-06-05T19:46:10;101231.25;;;21.74;44.30
26775;BME280;14362;51.902;7.626;2023-06-05T19:50:11;101234.34;;;21.63;44.25
26775;BME280;14362;51.902;7.626;2023-06-05T19:54:15;101252.09;;;21.56;44.49
26775;BME280;14362;51.902;7.626;2023-06-05T19:58:16;101249.03;;;21.42;47.88
26775;BME280;14362;51.902;7.626;2023-06-05T20:02:19;101260.00;;;21.44;53.86
26775;BME280;14362;51.902;7.626;2023-06-05T20:06:20;101260.63;;;21.30;58.68
26775;BME280;14362;51.902;7.626;2023-06-05T20:10:22;101275.41;;;21.43;61.88
26775;BME280;14362;51.902;7.626;2023-06-05T20:14:23;101273.44;;;21.21;66.84
26775;BME280;14362;51.902;7.626;2023-06-05T20:18:26;101274.22;;;21.18;70.51
26775;BME280;14362;51.902;7.626;2023-06-05T20:22:27;101276.09;;;21.07;74.59
26775;BME280;14362;51.902;7.626;2023-06-05T20:26:29;101286.25;;;20.85;79.74
26775;BME280;14362;51.902;7.626;2023-06-05T20:30:30;101283.59;;;20.73;83.53
26775;BME280;14362;51.902;7.626;2023-06-05T20:34:34;101287.94;;;20.67;85.95
26775;BME280;14362;51.902;7.626;2023-06-05T20:38:36;101287.06;;;20.63;88.36
26775;BME280;14362;51.902;7.626;2023-06-05T20:42:38;101283.91;;;20.46;93.34
26775;BME280;14362;51.902;7.626;2023-06-05T20:46:39;101285.94;;;20.46;94.69
26775;BME280;14362;51.902;7.626;2023-06-05T20:50:43;101291.47;;;20.39;97.49
26775;BME280;14362;51.902;7.626;2023-06-05T20:54:47;101296.38;;;20.19;100.00
26775;BME280;14362;51.902;7.626;2023-06-05T20:58:48;101293.41;;;20.12;100.00
26775;BME280;14362;51.902;7.626;2023-06-05T21:02:50;101293.75;;;20.11;100.00
26775;BME280;14362;51.902;7.626;2023-06-05T21:06:53;101299.84;;;19.94;100.00